Eastview, Kentucky
Current Conditions -  °F | °C
As of 4:58 AM on Friday 28 Nov 2014 (Local Time) from KFTK Reporting Station
Overcast Overcast  
Wind Chill: 21°   Ceiling: 10000
Heat Index: 21°   Visibility: 10mi
Dew Point: 18°   Wind: 0mph
Humidity: 89%   Direction: NA
Pressure: 30.41"   Gusts: NA
Location:  37.59°N, 86.06°W
Report Text: KFTK 280958Z AUTO 00000KT 10SM BKN100 OVC150 M06/M08 A3041 RMK AO2 SLP310 T10611076
Loading
Personal Weather Stations






























Interactive Weather Map New forecast layout! Learn more

10-Day Weather Forecast

Advertisements
Track Severe Weather on mobile